createdAt,value
2022-11-18T00:01:30.890Z,96308.86
2022-11-18T00:03:59.033Z,96296.09
2022-11-18T00:06:29.195Z,96286.86
2022-11-18T00:09:00.817Z,96290.64
2022-11-18T00:11:48.100Z,96292.14
2022-11-18T00:14:23.644Z,96295.33
2022-11-18T00:17:04.157Z,96300.77
2022-11-18T00:19:35.413Z,96306.99
2022-11-18T00:22:05.951Z,96315.50
2022-11-18T00:24:34.424Z,96303.98
2022-11-18T00:27:02.496Z,96286.62
2022-11-18T00:29:31.775Z,96282.31
2022-11-18T00:31:59.832Z,96283.84
2022-11-18T00:34:28.065Z,96292.73
2022-11-18T00:36:56.720Z,96291.92
2022-11-18T00:39:26.169Z,96285.95
2022-11-18T00:42:12.851Z,96284.21
2022-11-18T00:44:41.218Z,96273.22
2022-11-18T00:47:09.594Z,96270.38
2022-11-18T00:49:37.675Z,96268.96
2022-11-18T00:52:06.786Z,96266.58
2022-11-18T00:54:35.057Z,96257.22
2022-11-18T00:57:04.452Z,96253.39
2022-11-18T00:59:32.814Z,96254.34
2022-11-18T01:02:00.901Z,96254.20
2022-11-18T01:04:29.181Z,96255.59
2022-11-18T01:06:57.504Z,96258.94
2022-11-18T01:09:25.708Z,96256.05
2022-11-18T01:12:12.368Z,96253.35
2022-11-18T01:14:40.389Z,96248.48
2022-11-18T01:17:09.159Z,96249.00
2022-11-18T01:19:37.689Z,96249.64
2022-11-18T01:22:05.745Z,96245.02
2022-11-18T01:24:34.727Z,96243.31
2022-11-18T01:27:02.924Z,96239.40
2022-11-18T01:29:31.074Z,96239.35
2022-11-18T01:32:23.470Z,96236.70
2022-11-18T01:34:47.513Z,96230.61
2022-11-18T01:37:15.706Z,96234.08
2022-11-18T01:39:43.679Z,96236.15
2022-11-18T01:42:18.234Z,96232.28
2022-11-18T01:45:05.417Z,96227.02
2022-11-18T01:47:40.992Z,96218.60
2022-11-18T01:50:10.294Z,96213.14
2022-11-18T01:52:40.094Z,96209.18
2022-11-18T01:55:18.756Z,96209.77
2022-11-18T01:57:50.307Z,96207.98
2022-11-18T02:00:18.339Z,96209.86
2022-11-18T02:02:46.415Z,96213.83
2022-11-18T02:05:14.794Z,96211.41
2022-11-18T02:07:43.831Z,96206.95
2022-11-18T02:10:21.504Z,96206.48
2022-11-18T02:12:52.837Z,96208.63
2022-11-18T02:15:33.442Z,96215.60
2022-11-18T02:18:15.462Z,96216.96
2022-11-18T02:20:47.380Z,96211.45
2022-11-18T02:23:30.823Z,96211.75
2022-11-18T02:26:28.670Z,96212.89
2022-11-18T02:29:11.345Z,96209.37
2022-11-18T02:32:02.145Z,96203.85
2022-11-18T02:34:36.404Z,96197.61
2022-11-18T02:37:08.366Z,96196.30
2022-11-18T02:39:59.673Z,96200.65
2022-11-18T02:42:31.351Z,96200.77
2022-11-18T02:45:06.149Z,96203.44
2022-11-18T02:47:36.958Z,96207.74
2022-11-18T02:50:11.021Z,96216.27
2022-11-18T02:52:42.265Z,96216.36
2022-11-18T02:55:14.129Z,96212.27
2022-11-18T02:57:45.083Z,96207.55
2022-11-18T03:00:13.793Z,96200.55
2022-11-18T03:02:48.489Z,96198.80
2022-11-18T03:05:54.373Z,96198.16
2022-11-18T03:08:29.106Z,96194.05
2022-11-18T03:11:18.894Z,96196.04
2022-11-18T03:13:46.866Z,96201.89
2022-11-18T03:16:23.744Z,96210.38
2022-11-18T03:19:24.639Z,96211.15
2022-11-18T03:22:06.293Z,96214.42
2022-11-18T03:24:40.441Z,96213.13
2022-11-18T03:27:17.671Z,96213.67
2022-11-18T03:29:55.559Z,96219.54
2022-11-18T03:32:28.784Z,96216.16
2022-11-18T03:35:12.778Z,96213.69
2022-11-18T03:37:44.506Z,96211.85
2022-11-18T03:40:21.621Z,96210.92
2022-11-18T03:42:55.328Z,96208.58
2022-11-18T03:45:56.714Z,96209.75
2022-11-18T03:48:35.009Z,96205.78
2022-11-18T03:51:10.184Z,96201.14
2022-11-18T03:53:44.348Z,96200.95
2022-11-18T03:56:18.956Z,96201.66
2022-11-18T03:59:02.466Z,96198.45
2022-11-18T04:02:01.887Z,96195.02
2022-11-18T04:04:31.086Z,96189.39
2022-11-18T04:07:23.853Z,96188.77
2022-11-18T04:10:03.093Z,96185.80
2022-11-18T04:12:37.613Z,96187.30
2022-11-18T04:15:06.460Z,96190.44
2022-11-18T04:17:34.815Z,96181.38
2022-11-18T04:20:03.438Z,96176.46
2022-11-18T04:22:31.865Z,96173.55
2022-11-18T04:25:00.285Z,96166.52
2022-11-18T04:27:28.473Z,96153.80
2022-11-18T04:29:57.066Z,96144.13
2022-11-18T04:32:25.207Z,96132.09
2022-11-18T04:34:53.475Z,96131.06
2022-11-18T04:37:21.586Z,96129.86
2022-11-18T04:39:50.095Z,96127.58
2022-11-18T04:42:18.608Z,96124.28
2022-11-18T04:44:47.476Z,96127.75
2022-11-18T04:47:15.871Z,96123.40
2022-11-18T04:49:44.662Z,96119.85
2022-11-18T04:52:13.845Z,96118.21
2022-11-18T04:54:42.010Z,96112.66
2022-11-18T04:57:10.245Z,96116.23
2022-11-18T04:59:38.335Z,96117.02
2022-11-18T05:02:06.869Z,96133.45
2022-11-18T05:04:35.819Z,96146.75
2022-11-18T05:07:05.791Z,96140.27
2022-11-18T05:09:34.321Z,96136.29
2022-11-18T05:12:21.077Z,96149.61
2022-11-18T05:14:50.860Z,96158.96
2022-11-18T05:17:20.089Z,96160.54
2022-11-18T05:19:48.260Z,96163.47
2022-11-18T05:22:17.158Z,96168.35
2022-11-18T05:24:45.729Z,96171.11
2022-11-18T05:27:14.709Z,96177.81
2022-11-18T05:29:44.484Z,96179.86
2022-11-18T05:32:12.784Z,96170.96
2022-11-18T05:34:42.454Z,96171.63
2022-11-18T05:37:11.311Z,96169.70
2022-11-18T05:39:39.754Z,96169.16
2022-11-18T05:42:26.671Z,96173.02
2022-11-18T05:44:58.389Z,96164.42
2022-11-18T05:47:27.008Z,96168.09
2022-11-18T05:49:56.076Z,96173.30
2022-11-18T05:52:25.085Z,96169.87
2022-11-18T05:54:55.436Z,96172.38
2022-11-18T05:57:24.562Z,96172.11
2022-11-18T05:59:53.798Z,96171.69
2022-11-18T06:02:24.684Z,96174.05
2022-11-18T06:05:03.088Z,96182.33
2022-11-18T06:07:43.071Z,96191.61
2022-11-18T06:10:18.785Z,96195.30
2022-11-18T06:12:52.002Z,96200.37
2022-11-18T06:15:27.841Z,96207.98
2022-11-18T06:18:11.593Z,96207.10
2022-11-18T06:20:42.118Z,96200.34
2022-11-18T06:23:12.964Z,96206.71
2022-11-18T06:25:43.130Z,96209.79
2022-11-18T06:28:14.256Z,96208.53
2022-11-18T06:30:45.608Z,96201.71
2022-11-18T06:33:15.090Z,96205.20
2022-11-18T06:35:45.549Z,96210.39
2022-11-18T06:38:14.061Z,96205.30
2022-11-18T06:40:45.108Z,96204.44
2022-11-18T06:43:32.398Z,96212.16
2022-11-18T06:46:22.547Z,96211.86
2022-11-18T06:48:52.566Z,96208.15
2022-11-18T06:51:21.662Z,96195.63
2022-11-18T06:53:52.916Z,96193.80
2022-11-18T06:56:24.476Z,96195.82
2022-11-18T06:58:56.172Z,96198.71
2022-11-18T07:01:30.792Z,96194.25
2022-11-18T07:04:01.514Z,96196.31
2022-11-18T07:06:34.192Z,96191.90
2022-11-18T07:09:08.820Z,96190.04
2022-11-18T07:11:40.696Z,96189.54
2022-11-18T07:14:10.891Z,96186.84
2022-11-18T07:16:40.023Z,96195.77
2022-11-18T07:19:16.158Z,96194.91
2022-11-18T07:21:45.111Z,96191.79
2022-11-18T07:24:16.880Z,96189.23
2022-11-18T07:26:45.306Z,96176.21
2022-11-18T07:29:13.844Z,96176.23
2022-11-18T07:31:42.560Z,96172.73
2022-11-18T07:34:14.012Z,96174.36
2022-11-18T07:36:42.421Z,96174.99
2022-11-18T07:39:10.916Z,96168.65
2022-11-18T07:41:40.906Z,96169.89
2022-11-18T07:44:11.890Z,96165.36
2022-11-18T07:46:40.400Z,96164.89
2022-11-18T07:49:11.425Z,96164.28
2022-11-18T07:51:41.989Z,96160.60
2022-11-18T07:54:13.771Z,96157.63
2022-11-18T07:56:44.173Z,96155.95
2022-11-18T07:59:12.943Z,96159.16
2022-11-18T08:01:41.388Z,96155.80
2022-11-18T08:04:12.967Z,96154.67
2022-11-18T08:06:42.375Z,96158.39
2022-11-18T08:09:11.043Z,96163.17
2022-11-18T08:11:41.143Z,96157.77
2022-11-18T08:14:09.772Z,96160.42
2022-11-18T08:16:38.613Z,96160.62
2022-11-18T08:19:10.961Z,96157.73
2022-11-18T08:21:40.350Z,96155.41
2022-11-18T08:24:13.882Z,96155.98
2022-11-18T08:26:45.664Z,96150.06
2022-11-18T08:29:14.379Z,96143.66
2022-11-18T08:31:43.104Z,96146.17
2022-11-18T08:34:11.429Z,96143.75
2022-11-18T08:36:40.370Z,96144.05
2022-11-18T08:39:11.977Z,96142.65
2022-11-18T08:41:45.596Z,96141.13
2022-11-18T08:44:16.383Z,96139.61
2022-11-18T08:46:48.269Z,96141.70
2022-11-18T08:49:17.425Z,96145.06
2022-11-18T08:51:46.065Z,96146.46
2022-11-18T08:54:14.705Z,96150.41
2022-11-18T08:56:43.172Z,96146.73
2022-11-18T08:59:11.606Z,96143.75
2022-11-18T09:01:42.354Z,96147.23
2022-11-18T09:04:10.959Z,96146.67
2022-11-18T09:06:40.496Z,96149.11
2022-11-18T09:09:09.303Z,96151.98
2022-11-18T09:11:40.338Z,96152.45
2022-11-18T09:17:03.172Z,96144.02
2022-11-18T09:22:20.424Z,96135.58
2022-11-18T09:24:49.096Z,96138.19
2022-11-18T09:27:17.795Z,96141.76
2022-11-18T09:29:46.884Z,96136.38
2022-11-18T09:32:15.313Z,96121.16
2022-11-18T09:34:44.044Z,96116.50
2022-11-18T09:37:13.455Z,96116.27
2022-11-18T09:39:41.680Z,96111.95
2022-11-18T09:42:24.899Z,96115.52
2022-11-18T09:44:56.252Z,96114.95
2022-11-18T09:47:35.389Z,96109.34
2022-11-18T09:50:47.306Z,96105.02
2022-11-18T09:53:20.781Z,96096.29
2022-11-18T09:55:51.325Z,96093.08
2022-11-18T09:58:33.892Z,96092.23
2022-11-18T10:01:03.722Z,96095.81
2022-11-18T10:03:34.080Z,96095.07
2022-11-18T10:06:09.780Z,96085.11
2022-11-18T10:08:55.737Z,96077.95
2022-11-18T10:11:26.704Z,96073.61
2022-11-18T10:14:01.597Z,96072.70
2022-11-18T10:16:48.449Z,96072.48
2022-11-18T10:19:31.520Z,96068.71
2022-11-18T10:22:24.904Z,96062.71
2022-11-18T10:24:56.466Z,96065.44
2022-11-18T10:27:34.639Z,96063.69
2022-11-18T10:30:15.972Z,96071.85
2022-11-18T10:33:03.848Z,96071.74
2022-11-18T10:35:35.014Z,96068.87
2022-11-18T10:38:15.411Z,96063.74
2022-11-18T10:41:00.581Z,96060.77
2022-11-18T10:43:50.134Z,96061.39
2022-11-18T10:46:39.471Z,96058.92
2022-11-18T10:49:11.634Z,96058.65
2022-11-18T10:51:45.225Z,96057.06
2022-11-18T10:54:24.074Z,96052.05
2022-11-18T10:56:58.680Z,96048.14
2022-11-18T10:59:55.349Z,96043.18
2022-11-18T11:02:35.027Z,96040.78
2022-11-18T11:05:16.567Z,96033.84
2022-11-18T11:07:46.268Z,96024.40
2022-11-18T11:10:23.681Z,96025.64
2022-11-18T11:13:05.810Z,96017.12
2022-11-18T11:15:45.631Z,96015.83
2022-11-18T11:18:40.541Z,96017.67
2022-11-18T11:21:17.521Z,96015.06
2022-11-18T11:23:47.280Z,96009.90
2022-11-18T11:29:45.729Z,95993.36
2022-11-18T11:32:30.625Z,95989.08
2022-11-18T11:35:07.664Z,95990.63
2022-11-18T11:37:42.292Z,95992.91
2022-11-18T11:40:24.208Z,95990.25
2022-11-18T11:43:11.831Z,95984.36
2022-11-18T11:46:10.204Z,95983.64
2022-11-18T11:48:48.876Z,95971.44
2022-11-18T11:51:51.476Z,95967.47
2022-11-18T11:54:46.100Z,95966.92
2022-11-18T11:57:23.423Z,95964.65
2022-11-18T12:00:05.711Z,95962.42
2022-11-18T12:03:15.534Z,95959.02
2022-11-18T12:05:44.695Z,95958.39
2022-11-18T12:08:14.880Z,95962.30
2022-11-18T12:11:02.500Z,95961.15
2022-11-18T12:13:45.661Z,95962.60
2022-11-18T12:16:55.590Z,95965.65
2022-11-18T12:19:24.828Z,95964.79
2022-11-18T12:22:00.653Z,95959.48
2022-11-18T12:24:37.880Z,95957.66
2022-11-18T12:27:09.672Z,95954.69
2022-11-18T12:29:55.344Z,95953.30
2022-11-18T12:32:43.122Z,95952.60
2022-11-18T12:35:11.675Z,95948.76
2022-11-18T12:37:46.616Z,95944.64
2022-11-18T12:40:36.125Z,95940.30
2022-11-18T12:43:45.627Z,95941.63
2022-11-18T12:46:35.836Z,95938.29
2022-11-18T12:49:22.715Z,95936.38
2022-11-18T12:52:02.555Z,95933.27
2022-11-18T12:54:35.567Z,95928.26
2022-11-18T12:57:15.898Z,95924.17
2022-11-18T12:59:44.545Z,95919.94
2022-11-18T13:02:14.660Z,95919.89
2022-11-18T13:04:47.554Z,95912.13
2022-11-18T13:07:40.327Z,95914.90
2022-11-18T13:10:27.800Z,95912.15
2022-11-18T13:12:56.405Z,95906.71
2022-11-18T13:15:43.928Z,95904.32
2022-11-18T13:18:21.122Z,95897.32
2022-11-18T13:21:24.011Z,95889.47
2022-11-18T13:24:01.070Z,95889.39
2022-11-18T13:26:32.447Z,95885.46
2022-11-18T13:29:27.125Z,95885.93
2022-11-18T13:32:24.877Z,95889.39
2022-11-18T13:34:57.471Z,95889.44
2022-11-18T13:37:30.991Z,95887.59
2022-11-18T13:39:59.123Z,95886.58
2022-11-18T13:42:31.937Z,95885.56
2022-11-18T13:45:04.188Z,95884.08
2022-11-18T13:47:45.348Z,95880.64
2022-11-18T13:50:23.219Z,95869.60
2022-11-18T13:53:13.656Z,95870.63
2022-11-18T13:56:18.408Z,95871.23
2022-11-18T14:01:38.932Z,95870.88
2022-11-18T14:04:21.039Z,95869.16
2022-11-18T14:06:50.324Z,95867.65
2022-11-18T14:09:29.030Z,95872.14
2022-11-18T14:12:02.421Z,95867.84
2022-11-18T14:14:39.087Z,95864.40
2022-11-18T14:17:23.318Z,95861.34
2022-11-18T14:19:54.211Z,95860.95
2022-11-18T14:22:26.515Z,95865.70
2022-11-18T14:25:01.957Z,95861.89
2022-11-18T14:27:50.287Z,95862.54
2022-11-18T14:30:30.766Z,95864.72
2022-11-18T14:33:20.888Z,95861.58
2022-11-18T14:36:03.894Z,95864.73
2022-11-18T14:41:44.756Z,95851.90
2022-11-18T14:44:14.421Z,95850.61
2022-11-18T14:46:47.014Z,95843.50
2022-11-18T14:49:22.543Z,95843.38
2022-11-18T14:51:55.296Z,95841.62
2022-11-18T14:54:27.412Z,95838.09
2022-11-18T14:57:04.640Z,95834.42
2022-11-18T14:59:33.197Z,95839.71
2022-11-18T15:02:01.428Z,95838.71
2022-11-18T15:04:30.377Z,95841.89
2022-11-18T15:06:59.594Z,95841.98
2022-11-18T15:09:28.157Z,95836.47
2022-11-18T15:11:56.726Z,95835.04
2022-11-18T15:14:25.494Z,95829.70
2022-11-18T15:16:54.197Z,95823.25
2022-11-18T15:19:23.274Z,95824.80
2022-11-18T15:21:52.025Z,95823.61
2022-11-18T15:24:20.867Z,95818.61
2022-11-18T15:26:49.733Z,95816.05
2022-11-18T15:29:24.796Z,95817.14
2022-11-18T15:31:53.476Z,95818.95
2022-11-18T15:34:22.531Z,95812.44
2022-11-18T15:36:51.158Z,95814.73
2022-11-18T15:39:19.362Z,95813.71
2022-11-18T15:41:47.801Z,95810.44
2022-11-18T15:44:16.470Z,95807.11
2022-11-18T15:46:48.250Z,95808.45
2022-11-18T15:49:18.389Z,95806.45
2022-11-18T15:51:47.155Z,95806.89
2022-11-18T15:54:15.863Z,95811.20
2022-11-18T15:56:44.219Z,95810.54
2022-11-18T15:59:14.249Z,95805.52
2022-11-18T16:01:49.533Z,95803.80
2022-11-18T16:04:19.293Z,95808.27
2022-11-18T16:06:48.791Z,95809.20
2022-11-18T16:09:18.240Z,95806.69
2022-11-18T16:12:05.206Z,95805.91
2022-11-18T16:14:38.811Z,95804.69
2022-11-18T16:17:07.200Z,95805.38
2022-11-18T16:19:36.088Z,95804.95
2022-11-18T16:22:04.432Z,95804.36
2022-11-18T16:24:33.043Z,95801.54
2022-11-18T16:27:04.331Z,95805.20
2022-11-18T16:29:33.517Z,95805.27
2022-11-18T16:32:02.356Z,95801.08
2022-11-18T16:34:31.127Z,95799.67
2022-11-18T16:37:01.402Z,95800.70
2022-11-18T16:39:29.717Z,95804.05
2022-11-18T16:42:07.381Z,95807.25
2022-11-18T16:44:37.947Z,95814.13
2022-11-18T16:47:13.694Z,95812.86
2022-11-18T16:49:44.349Z,95808.46
2022-11-18T16:52:12.809Z,95810.25
2022-11-18T16:54:45.373Z,95805.77
2022-11-18T16:57:16.216Z,95802.55
2022-11-18T16:59:45.907Z,95800.27
2022-11-18T17:02:15.210Z,95802.71
2022-11-18T17:04:44.293Z,95799.14
2022-11-18T17:07:13.372Z,95796.87
2022-11-18T17:09:41.796Z,95797.05
2022-11-18T17:12:10.067Z,95797.36
2022-11-18T17:14:40.170Z,95792.56
2022-11-18T17:17:08.430Z,95792.30
2022-11-18T17:19:36.785Z,95790.35
2022-11-18T17:22:05.239Z,95790.23
2022-11-18T17:24:33.777Z,95795.67
2022-11-18T17:27:02.094Z,95796.23
2022-11-18T17:29:30.269Z,95794.09
2022-11-18T17:31:58.727Z,95791.94
2022-11-18T17:34:27.171Z,95791.35
2022-11-18T17:36:55.363Z,95793.23
2022-11-18T17:39:23.614Z,95791.70
2022-11-18T17:42:10.266Z,95793.33
2022-11-18T17:44:38.609Z,95799.91
2022-11-18T17:47:07.483Z,95801.98
2022-11-18T17:49:35.725Z,95801.79
2022-11-18T17:52:04.078Z,95796.08
2022-11-18T17:54:32.241Z,95797.00
2022-11-18T17:57:00.535Z,95788.06
2022-11-18T17:59:28.905Z,95790.45
2022-11-18T18:01:59.479Z,95790.70
2022-11-18T18:04:28.542Z,95791.54
2022-11-18T18:06:56.974Z,95797.59
2022-11-18T18:09:30.488Z,95796.73
2022-11-18T18:12:00.892Z,95789.86
2022-11-18T18:14:29.348Z,95792.64
2022-11-18T18:16:57.708Z,95792.55
2022-11-18T18:19:25.787Z,95790.17
2022-11-18T18:21:54.013Z,95794.36
2022-11-18T18:24:22.808Z,95798.23
2022-11-18T18:26:51.528Z,95799.25
2022-11-18T18:29:20.257Z,95795.23
2022-11-18T18:31:48.413Z,95794.52
2022-11-18T18:34:17.565Z,95797.59
2022-11-18T18:36:46.018Z,95798.69
2022-11-18T18:39:14.068Z,95802.93
2022-11-18T18:41:42.213Z,95805.89
2022-11-18T18:44:13.870Z,95806.10
2022-11-18T18:46:45.106Z,95805.02
2022-11-18T18:49:20.665Z,95806.10
2022-11-18T18:51:49.751Z,95809.00
2022-11-18T18:54:20.434Z,95808.26
2022-11-18T18:56:48.588Z,95805.09
2022-11-18T18:59:16.590Z,95801.77
2022-11-18T19:01:44.766Z,95804.23
2022-11-18T19:04:13.844Z,95801.73
2022-11-18T19:06:56.907Z,95802.26
2022-11-18T19:09:27.918Z,95804.95
2022-11-18T19:12:14.632Z,95810.34
2022-11-18T19:14:42.905Z,95808.09
2022-11-18T19:17:12.613Z,95806.52
2022-11-18T19:20:01.808Z,95803.57
2022-11-18T19:22:32.413Z,95802.54
2022-11-18T19:25:01.438Z,95802.98
2022-11-18T19:27:30.667Z,95798.93
2022-11-18T19:29:59.237Z,95799.68
2022-11-18T19:32:27.360Z,95799.88
2022-11-18T19:34:55.318Z,95796.67
2022-11-18T19:37:23.404Z,95795.11
2022-11-18T19:39:51.431Z,95792.80
2022-11-18T19:42:19.495Z,95789.42
2022-11-18T19:44:47.574Z,95790.96
2022-11-18T19:47:15.592Z,95790.15
2022-11-18T19:49:43.790Z,95789.50
2022-11-18T19:52:11.834Z,95786.70
2022-11-18T19:54:41.021Z,95785.67
2022-11-18T19:57:08.966Z,95791.03
2022-11-18T19:59:37.193Z,95792.36
2022-11-18T20:02:06.254Z,95789.39
2022-11-18T20:04:34.430Z,95787.07
2022-11-18T20:07:02.409Z,95787.17
2022-11-18T20:09:31.256Z,95777.71
2022-11-18T20:11:59.556Z,95776.11
2022-11-18T20:14:28.146Z,95770.05
2022-11-18T20:16:56.358Z,95768.05
2022-11-18T20:19:25.306Z,95769.71
2022-11-18T20:21:53.305Z,95769.89
2022-11-18T20:24:21.341Z,95771.09
2022-11-18T20:26:49.511Z,95769.64
2022-11-18T20:29:17.802Z,95771.48
2022-11-18T20:31:46.268Z,95773.23
2022-11-18T20:34:15.219Z,95775.67
2022-11-18T20:36:43.361Z,95774.43
2022-11-18T20:39:14.676Z,95776.45
2022-11-18T20:41:43.564Z,95775.24
2022-11-18T20:44:11.564Z,95771.34
2022-11-18T20:46:39.768Z,95777.64
2022-11-18T20:49:08.242Z,95776.48
2022-11-18T20:51:36.703Z,95777.91
2022-11-18T20:54:08.468Z,95770.77
2022-11-18T20:56:36.461Z,95769.33
2022-11-18T20:59:04.580Z,95772.80
2022-11-18T21:01:33.916Z,95779.10
2022-11-18T21:04:03.694Z,95787.87
2022-11-18T21:06:32.901Z,95792.49
2022-11-18T21:09:03.637Z,95797.58
2022-11-18T21:11:35.108Z,95798.63
2022-11-18T21:14:24.432Z,95800.50
2022-11-18T21:17:00.785Z,95802.20
2022-11-18T21:19:30.269Z,95802.52
2022-11-18T21:21:58.407Z,95800.37
2022-11-18T21:24:31.925Z,95799.84
2022-11-18T21:27:01.360Z,95805.33
2022-11-18T21:29:31.628Z,95808.84
2022-11-18T21:32:03.318Z,95812.79
2022-11-18T21:34:32.156Z,95809.89
2022-11-18T21:37:00.574Z,95806.66
2022-11-18T21:39:28.637Z,95805.63
2022-11-18T21:41:57.641Z,95810.77
2022-11-18T21:44:28.490Z,95820.13
2022-11-18T21:46:57.758Z,95827.63
2022-11-18T21:49:25.880Z,95826.90
2022-11-18T21:51:54.052Z,95827.02
2022-11-18T21:54:22.275Z,95829.45
2022-11-18T21:56:50.442Z,95830.70
2022-11-18T21:59:19.086Z,95836.86
2022-11-18T22:01:47.593Z,95839.98
2022-11-18T22:04:35.728Z,95844.34
2022-11-18T22:07:03.939Z,95847.66
2022-11-18T22:09:36.515Z,95855.02
2022-11-18T22:12:07.082Z,95849.04
2022-11-18T22:14:36.560Z,95844.39
2022-11-18T22:17:05.355Z,95849.14
2022-11-18T22:19:33.926Z,95860.61
2022-11-18T22:22:02.820Z,95867.66
2022-11-18T22:24:30.955Z,95873.34
2022-11-18T22:26:58.931Z,95879.42
2022-11-18T22:29:26.964Z,95879.38
2022-11-18T22:31:55.119Z,95880.85
2022-11-18T22:34:23.312Z,95884.11
2022-11-18T22:36:51.259Z,95886.70
2022-11-18T22:39:19.572Z,95891.42
2022-11-18T22:42:16.847Z,95900.41
2022-11-18T22:44:45.072Z,95903.04
2022-11-18T22:47:13.240Z,95904.05
2022-11-18T22:49:41.263Z,95910.99
2022-11-18T22:52:09.381Z,95925.27
2022-11-18T22:54:39.333Z,95932.40
2022-11-18T22:57:09.011Z,95938.50
2022-11-18T22:59:37.281Z,95941.23
2022-11-18T23:02:05.834Z,95940.89
2022-11-18T23:04:33.944Z,95942.98
2022-11-18T23:07:02.155Z,95951.17
2022-11-18T23:09:30.415Z,95965.52
2022-11-18T23:12:16.926Z,95972.54
2022-11-18T23:14:44.890Z,95982.41
2022-11-18T23:17:13.065Z,95988.66
2022-11-18T23:19:43.788Z,95995.66
2022-11-18T23:22:13.230Z,96000.27
2022-11-18T23:24:41.609Z,95998.71
2022-11-18T23:27:09.841Z,95998.95
2022-11-18T23:29:37.951Z,96003.77
2022-11-18T23:32:05.835Z,96006.14
2022-11-18T23:34:33.716Z,96009.54
2022-11-18T23:37:01.823Z,96013.23
2022-11-18T23:39:29.735Z,96015.77
2022-11-18T23:41:57.643Z,96020.46
2022-11-18T23:44:45.298Z,96019.39
2022-11-18T23:47:13.766Z,96025.00
2022-11-18T23:49:41.889Z,96030.52
2022-11-18T23:52:09.797Z,96040.41
2022-11-18T23:54:38.157Z,96051.33
2022-11-18T23:57:06.125Z,96061.89
2022-11-18T23:59:34.225Z,96070.31
